sensor_id;sensor_type;location;lat;lon;timestamp;P1;durP1;ratioP1;P2;durP2;ratioP2
18176;SDS011;9213;50.858;3.964;2022-08-21T00:02:00;6.88;;;4.10;;
18176;SDS011;9213;50.858;3.964;2022-08-21T00:04:27;7.45;;;4.18;;
18176;SDS011;9213;50.858;3.964;2022-08-21T00:06:55;5.53;;;3.72;;
18176;SDS011;9213;50.858;3.964;2022-08-21T00:09:22;6.07;;;3.28;;
18176;SDS011;9213;50.858;3.964;2022-08-21T00:11:50;8.37;;;4.00;;
18176;SDS011;9213;50.858;3.964;2022-08-21T00:14:17;10.80;;;4.03;;
18176;SDS011;9213;50.858;3.964;2022-08-21T00:16:44;9.40;;;4.37;;
18176;SDS011;9213;50.858;3.964;2022-08-21T00:19:11;8.73;;;3.63;;
18176;SDS011;9213;50.858;3.964;2022-08-21T00:21:37;9.40;;;3.70;;
18176;SDS011;9213;50.858;3.964;2022-08-21T00:24:04;9.07;;;3.77;;
18176;SDS011;9213;50.858;3.964;2022-08-21T00:26:32;7.40;;;3.53;;
18176;SDS011;9213;50.858;3.964;2022-08-21T00:29:00;9.30;;;3.83;;
18176;SDS011;9213;50.858;3.964;2022-08-21T00:31:27;9.30;;;3.63;;
18176;SDS011;9213;50.858;3.964;2022-08-21T00:33:54;6.47;;;3.53;;
18176;SDS011;9213;50.858;3.964;2022-08-21T00:36:21;6.03;;;3.40;;
18176;SDS011;9213;50.858;3.964;2022-08-21T00:38:47;6.50;;;2.97;;
18176;SDS011;9213;50.858;3.964;2022-08-21T00:41:14;6.57;;;3.00;;
18176;SDS011;9213;50.858;3.964;2022-08-21T00:43:41;8.23;;;3.33;;
18176;SDS011;9213;50.858;3.964;2022-08-21T00:46:09;5.03;;;2.60;;
18176;SDS011;9213;50.858;3.964;2022-08-21T00:48:36;8.90;;;3.33;;
18176;SDS011;9213;50.858;3.964;2022-08-21T00:51:05;6.00;;;3.20;;
18176;SDS011;9213;50.858;3.964;2022-08-21T00:53:33;4.60;;;2.80;;
18176;SDS011;9213;50.858;3.964;2022-08-21T00:56:02;8.47;;;3.40;;
18176;SDS011;9213;50.858;3.964;2022-08-21T00:58:30;7.07;;;3.03;;
18176;SDS011;9213;50.858;3.964;2022-08-21T01:01:01;6.00;;;2.97;;
18176;SDS011;9213;50.858;3.964;2022-08-21T01:03:31;9.73;;;3.77;;
18176;SDS011;9213;50.858;3.964;2022-08-21T01:05:59;8.03;;;3.17;;
18176;SDS011;9213;50.858;3.964;2022-08-21T01:08:26;7.87;;;2.83;;
18176;SDS011;9213;50.858;3.964;2022-08-21T01:10:55;5.90;;;2.80;;
18176;SDS011;9213;50.858;3.964;2022-08-21T01:13:22;6.10;;;2.80;;
18176;SDS011;9213;50.858;3.964;2022-08-21T01:15:51;4.90;;;2.67;;
18176;SDS011;9213;50.858;3.964;2022-08-21T01:18:20;11.30;;;3.77;;
18176;SDS011;9213;50.858;3.964;2022-08-21T01:20:59;5.70;;;2.80;;
18176;SDS011;9213;50.858;3.964;2022-08-21T01:23:34;6.67;;;2.93;;
18176;SDS011;9213;50.858;3.964;2022-08-21T01:26:02;5.17;;;2.80;;
18176;SDS011;9213;50.858;3.964;2022-08-21T01:28:30;6.63;;;2.97;;
18176;SDS011;9213;50.858;3.964;2022-08-21T01:31:00;12.30;;;3.40;;
18176;SDS011;9213;50.858;3.964;2022-08-21T01:33:29;10.60;;;3.90;;
18176;SDS011;9213;50.858;3.964;2022-08-21T01:35:56;6.50;;;3.00;;
18176;SDS011;9213;50.858;3.964;2022-08-21T01:38:24;8.37;;;3.30;;
18176;SDS011;9213;50.858;3.964;2022-08-21T01:40:51;6.17;;;3.20;;
18176;SDS011;9213;50.858;3.964;2022-08-21T01:43:18;8.03;;;3.23;;
18176;SDS011;9213;50.858;3.964;2022-08-21T01:45:45;5.67;;;2.93;;
18176;SDS011;9213;50.858;3.964;2022-08-21T01:48:12;7.70;;;2.93;;
18176;SDS011;9213;50.858;3.964;2022-08-21T01:50:39;8.83;;;3.00;;
18176;SDS011;9213;50.858;3.964;2022-08-21T01:53:06;4.60;;;2.83;;
18176;SDS011;9213;50.858;3.964;2022-08-21T01:55:34;7.93;;;3.20;;
18176;SDS011;9213;50.858;3.964;2022-08-21T01:58:01;7.10;;;3.10;;
18176;SDS011;9213;50.858;3.964;2022-08-21T02:00:28;8.43;;;3.33;;
18176;SDS011;9213;50.858;3.964;2022-08-21T02:02:55;6.63;;;3.10;;
18176;SDS011;9213;50.858;3.964;2022-08-21T02:05:22;8.97;;;3.53;;
18176;SDS011;9213;50.858;3.964;2022-08-21T02:07:49;7.23;;;3.00;;
18176;SDS011;9213;50.858;3.964;2022-08-21T02:10:19;8.67;;;3.50;;
18176;SDS011;9213;50.858;3.964;2022-08-21T02:12:49;9.10;;;3.40;;
18176;SDS011;9213;50.858;3.964;2022-08-21T02:15:16;5.90;;;2.80;;
18176;SDS011;9213;50.858;3.964;2022-08-21T02:17:44;8.43;;;3.27;;
18176;SDS011;9213;50.858;3.964;2022-08-21T02:20:15;9.50;;;3.30;;
18176;SDS011;9213;50.858;3.964;2022-08-21T02:22:49;9.07;;;3.63;;
18176;SDS011;9213;50.858;3.964;2022-08-21T02:25:17;6.87;;;3.17;;
18176;SDS011;9213;50.858;3.964;2022-08-21T02:27:46;10.30;;;3.70;;
18176;SDS011;9213;50.858;3.964;2022-08-21T02:30:16;3.40;;;2.90;;
18176;SDS011;9213;50.858;3.964;2022-08-21T02:32:46;6.27;;;3.60;;
18176;SDS011;9213;50.858;3.964;2022-08-21T02:35:13;7.70;;;3.53;;
18176;SDS011;9213;50.858;3.964;2022-08-21T02:37:44;7.17;;;3.20;;
18176;SDS011;9213;50.858;3.964;2022-08-21T02:40:13;9.97;;;3.40;;
18176;SDS011;9213;50.858;3.964;2022-08-21T02:42:41;4.47;;;3.27;;
18176;SDS011;9213;50.858;3.964;2022-08-21T02:45:09;6.43;;;3.30;;
18176;SDS011;9213;50.858;3.964;2022-08-21T02:47:38;8.03;;;3.50;;
18176;SDS011;9213;50.858;3.964;2022-08-21T02:50:06;5.00;;;3.13;;
18176;SDS011;9213;50.858;3.964;2022-08-21T02:52:33;6.80;;;2.93;;
18176;SDS011;9213;50.858;3.964;2022-08-21T02:55:00;7.57;;;3.43;;
18176;SDS011;9213;50.858;3.964;2022-08-21T02:57:27;9.27;;;3.37;;
18176;SDS011;9213;50.858;3.964;2022-08-21T02:59:54;8.03;;;3.20;;
18176;SDS011;9213;50.858;3.964;2022-08-21T03:02:20;7.07;;;3.10;;
18176;SDS011;9213;50.858;3.964;2022-08-21T03:04:49;6.40;;;3.07;;
18176;SDS011;9213;50.858;3.964;2022-08-21T03:07:15;6.57;;;3.47;;
18176;SDS011;9213;50.858;3.964;2022-08-21T03:09:42;6.73;;;3.57;;
18176;SDS011;9213;50.858;3.964;2022-08-21T03:12:09;11.43;;;3.07;;
18176;SDS011;9213;50.858;3.964;2022-08-21T03:14:36;7.60;;;3.80;;
18176;SDS011;9213;50.858;3.964;2022-08-21T03:17:03;9.20;;;3.70;;
18176;SDS011;9213;50.858;3.964;2022-08-21T03:19:32;6.23;;;3.20;;
18176;SDS011;9213;50.858;3.964;2022-08-21T03:22:00;8.23;;;3.67;;
18176;SDS011;9213;50.858;3.964;2022-08-21T03:24:27;6.57;;;3.43;;
18176;SDS011;9213;50.858;3.964;2022-08-21T03:26:54;8.90;;;3.13;;
18176;SDS011;9213;50.858;3.964;2022-08-21T03:29:21;9.17;;;3.57;;
18176;SDS011;9213;50.858;3.964;2022-08-21T03:31:48;5.90;;;3.10;;
18176;SDS011;9213;50.858;3.964;2022-08-21T03:34:18;8.40;;;3.73;;
18176;SDS011;9213;50.858;3.964;2022-08-21T03:36:45;9.13;;;3.50;;
18176;SDS011;9213;50.858;3.964;2022-08-21T03:39:13;8.47;;;3.83;;
18176;SDS011;9213;50.858;3.964;2022-08-21T03:41:40;10.80;;;3.43;;
18176;SDS011;9213;50.858;3.964;2022-08-21T03:44:07;8.53;;;4.00;;
18176;SDS011;9213;50.858;3.964;2022-08-21T03:46:34;5.77;;;3.47;;
18176;SDS011;9213;50.858;3.964;2022-08-21T03:49:01;10.27;;;3.80;;
18176;SDS011;9213;50.858;3.964;2022-08-21T03:51:28;7.77;;;4.17;;
18176;SDS011;9213;50.858;3.964;2022-08-21T03:53:57;9.83;;;4.00;;
18176;SDS011;9213;50.858;3.964;2022-08-21T03:56:25;8.47;;;3.80;;
18176;SDS011;9213;50.858;3.964;2022-08-21T03:58:52;6.70;;;3.37;;
18176;SDS011;9213;50.858;3.964;2022-08-21T04:01:19;8.70;;;4.23;;
18176;SDS011;9213;50.858;3.964;2022-08-21T04:03:46;10.00;;;3.80;;
18176;SDS011;9213;50.858;3.964;2022-08-21T04:06:12;10.83;;;3.77;;
18176;SDS011;9213;50.858;3.964;2022-08-21T04:08:39;7.87;;;3.60;;
18176;SDS011;9213;50.858;3.964;2022-08-21T04:11:08;11.57;;;4.13;;
18176;SDS011;9213;50.858;3.964;2022-08-21T04:13:37;7.03;;;3.50;;
18176;SDS011;9213;50.858;3.964;2022-08-21T04:16:05;7.97;;;3.90;;
18176;SDS011;9213;50.858;3.964;2022-08-21T04:18:34;10.57;;;3.97;;
18176;SDS011;9213;50.858;3.964;2022-08-21T04:21:01;7.93;;;4.70;;
18176;SDS011;9213;50.858;3.964;2022-08-21T04:23:29;9.43;;;4.10;;
18176;SDS011;9213;50.858;3.964;2022-08-21T04:25:56;8.53;;;4.17;;
18176;SDS011;9213;50.858;3.964;2022-08-21T04:28:23;8.57;;;4.00;;
18176;SDS011;9213;50.858;3.964;2022-08-21T04:30:53;9.00;;;3.93;;
18176;SDS011;9213;50.858;3.964;2022-08-21T04:33:20;6.60;;;3.97;;
18176;SDS011;9213;50.858;3.964;2022-08-21T04:35:47;9.27;;;4.60;;
18176;SDS011;9213;50.858;3.964;2022-08-21T04:38:15;6.97;;;3.83;;
18176;SDS011;9213;50.858;3.964;2022-08-21T04:40:42;8.03;;;4.30;;
18176;SDS011;9213;50.858;3.964;2022-08-21T04:43:09;8.77;;;4.40;;
18176;SDS011;9213;50.858;3.964;2022-08-21T04:45:37;7.87;;;3.97;;
18176;SDS011;9213;50.858;3.964;2022-08-21T04:48:08;8.80;;;4.47;;
18176;SDS011;9213;50.858;3.964;2022-08-21T04:50:39;9.33;;;4.33;;
18176;SDS011;9213;50.858;3.964;2022-08-21T04:53:10;8.77;;;4.23;;
18176;SDS011;9213;50.858;3.964;2022-08-21T04:55:40;8.50;;;4.20;;
18176;SDS011;9213;50.858;3.964;2022-08-21T04:58:09;8.70;;;4.20;;
18176;SDS011;9213;50.858;3.964;2022-08-21T05:00:38;8.10;;;4.30;;
18176;SDS011;9213;50.858;3.964;2022-08-21T05:03:05;12.77;;;4.97;;
18176;SDS011;9213;50.858;3.964;2022-08-21T05:05:35;7.90;;;4.00;;
18176;SDS011;9213;50.858;3.964;2022-08-21T05:08:03;6.93;;;4.03;;
18176;SDS011;9213;50.858;3.964;2022-08-21T05:10:32;8.17;;;4.33;;
18176;SDS011;9213;50.858;3.964;2022-08-21T05:13:00;14.03;;;4.90;;
18176;SDS011;9213;50.858;3.964;2022-08-21T05:15:28;9.53;;;4.50;;
18176;SDS011;9213;50.858;3.964;2022-08-21T05:17:55;11.97;;;4.40;;
18176;SDS011;9213;50.858;3.964;2022-08-21T05:20:23;7.77;;;4.70;;
18176;SDS011;9213;50.858;3.964;2022-08-21T05:22:50;12.83;;;5.30;;
18176;SDS011;9213;50.858;3.964;2022-08-21T05:25:17;15.90;;;4.60;;
18176;SDS011;9213;50.858;3.964;2022-08-21T05:27:44;10.43;;;5.00;;
18176;SDS011;9213;50.858;3.964;2022-08-21T05:30:11;11.03;;;4.67;;
18176;SDS011;9213;50.858;3.964;2022-08-21T05:32:38;8.93;;;4.63;;
18176;SDS011;9213;50.858;3.964;2022-08-21T05:35:06;10.57;;;4.73;;
18176;SDS011;9213;50.858;3.964;2022-08-21T05:37:35;10.43;;;4.90;;
18176;SDS011;9213;50.858;3.964;2022-08-21T05:40:02;11.30;;;4.43;;
18176;SDS011;9213;50.858;3.964;2022-08-21T05:42:30;9.73;;;4.40;;
18176;SDS011;9213;50.858;3.964;2022-08-21T05:44:57;8.73;;;4.73;;
18176;SDS011;9213;50.858;3.964;2022-08-21T05:47:24;8.30;;;4.83;;
18176;SDS011;9213;50.858;3.964;2022-08-21T05:49:51;7.50;;;4.23;;
18176;SDS011;9213;50.858;3.964;2022-08-21T05:52:18;8.33;;;4.20;;
18176;SDS011;9213;50.858;3.964;2022-08-21T05:54:47;8.33;;;4.57;;
18176;SDS011;9213;50.858;3.964;2022-08-21T05:57:14;7.47;;;4.17;;
18176;SDS011;9213;50.858;3.964;2022-08-21T05:59:41;11.20;;;4.83;;
18176;SDS011;9213;50.858;3.964;2022-08-21T06:02:08;9.07;;;4.67;;
18176;SDS011;9213;50.858;3.964;2022-08-21T06:04:36;10.73;;;4.63;;
18176;SDS011;9213;50.858;3.964;2022-08-21T06:07:04;10.27;;;4.50;;
18176;SDS011;9213;50.858;3.964;2022-08-21T06:09:31;11.00;;;5.03;;
18176;SDS011;9213;50.858;3.964;2022-08-21T06:12:03;8.57;;;4.23;;
18176;SDS011;9213;50.858;3.964;2022-08-21T06:14:31;11.40;;;4.80;;
18176;SDS011;9213;50.858;3.964;2022-08-21T06:17:01;6.17;;;4.10;;
18176;SDS011;9213;50.858;3.964;2022-08-21T06:19:28;12.33;;;4.57;;
18176;SDS011;9213;50.858;3.964;2022-08-21T06:21:55;10.27;;;4.07;;
18176;SDS011;9213;50.858;3.964;2022-08-21T06:24:22;7.17;;;4.07;;
18176;SDS011;9213;50.858;3.964;2022-08-21T06:26:49;8.63;;;4.30;;
18176;SDS011;9213;50.858;3.964;2022-08-21T06:29:18;12.10;;;5.13;;
18176;SDS011;9213;50.858;3.964;2022-08-21T06:31:45;9.33;;;4.73;;
18176;SDS011;9213;50.858;3.964;2022-08-21T06:34:12;11.23;;;4.97;;
18176;SDS011;9213;50.858;3.964;2022-08-21T06:36:40;9.70;;;4.20;;
18176;SDS011;9213;50.858;3.964;2022-08-21T06:39:07;7.70;;;4.20;;
18176;SDS011;9213;50.858;3.964;2022-08-21T06:41:34;7.00;;;4.27;;
18176;SDS011;9213;50.858;3.964;2022-08-21T06:44:01;10.97;;;4.30;;
18176;SDS011;9213;50.858;3.964;2022-08-21T06:46:29;9.67;;;4.27;;
18176;SDS011;9213;50.858;3.964;2022-08-21T06:48:57;11.17;;;4.20;;
18176;SDS011;9213;50.858;3.964;2022-08-21T06:51:24;8.60;;;4.43;;
18176;SDS011;9213;50.858;3.964;2022-08-21T06:53:51;10.80;;;4.97;;
18176;SDS011;9213;50.858;3.964;2022-08-21T06:56:19;9.57;;;4.60;;
18176;SDS011;9213;50.858;3.964;2022-08-21T06:58:46;11.37;;;4.70;;
18176;SDS011;9213;50.858;3.964;2022-08-21T07:01:12;8.73;;;4.40;;
18176;SDS011;9213;50.858;3.964;2022-08-21T07:03:41;10.60;;;3.70;;
18176;SDS011;9213;50.858;3.964;2022-08-21T07:06:10;10.30;;;3.97;;
18176;SDS011;9213;50.858;3.964;2022-08-21T07:08:37;8.87;;;3.40;;
18176;SDS011;9213;50.858;3.964;2022-08-21T07:11:07;6.67;;;3.20;;
18176;SDS011;9213;50.858;3.964;2022-08-21T07:13:37;10.10;;;3.30;;
18176;SDS011;9213;50.858;3.964;2022-08-21T07:16:04;7.63;;;3.08;;
18176;SDS011;9213;50.858;3.964;2022-08-21T07:18:31;6.15;;;2.90;;
18176;SDS011;9213;50.858;3.964;2022-08-21T07:20:59;8.52;;;2.67;;
18176;SDS011;9213;50.858;3.964;2022-08-21T07:23:28;6.43;;;2.65;;
18176;SDS011;9213;50.858;3.964;2022-08-21T07:25:57;7.13;;;3.08;;
18176;SDS011;9213;50.858;3.964;2022-08-21T07:28:24;8.20;;;2.78;;
18176;SDS011;9213;50.858;3.964;2022-08-21T07:30:51;6.30;;;2.58;;
18176;SDS011;9213;50.858;3.964;2022-08-21T07:33:20;10.60;;;2.83;;
18176;SDS011;9213;50.858;3.964;2022-08-21T07:35:47;6.22;;;2.50;;
18176;SDS011;9213;50.858;3.964;2022-08-21T07:38:16;6.13;;;2.40;;
18176;SDS011;9213;50.858;3.964;2022-08-21T07:40:43;5.75;;;2.42;;
18176;SDS011;9213;50.858;3.964;2022-08-21T07:43:10;6.78;;;2.53;;
18176;SDS011;9213;50.858;3.964;2022-08-21T07:45:37;4.72;;;2.17;;
18176;SDS011;9213;50.858;3.964;2022-08-21T07:48:04;8.20;;;2.42;;
18176;SDS011;9213;50.858;3.964;2022-08-21T07:50:31;8.35;;;2.30;;
18176;SDS011;9213;50.858;3.964;2022-08-21T07:52:58;5.68;;;2.10;;
18176;SDS011;9213;50.858;3.964;2022-08-21T07:55:26;7.60;;;2.20;;
18176;SDS011;9213;50.858;3.964;2022-08-21T07:57:53;8.55;;;2.40;;
18176;SDS011;9213;50.858;3.964;2022-08-21T08:00:20;9.93;;;2.78;;
18176;SDS011;9213;50.858;3.964;2022-08-21T08:02:50;5.40;;;2.05;;
18176;SDS011;9213;50.858;3.964;2022-08-21T08:05:19;7.13;;;2.33;;
18176;SDS011;9213;50.858;3.964;2022-08-21T08:07:48;10.38;;;2.38;;
18176;SDS011;9213;50.858;3.964;2022-08-21T08:10:16;6.20;;;2.10;;
18176;SDS011;9213;50.858;3.964;2022-08-21T08:12:45;7.30;;;2.40;;
18176;SDS011;9213;50.858;3.964;2022-08-21T08:15:14;9.13;;;2.20;;
18176;SDS011;9213;50.858;3.964;2022-08-21T08:17:42;7.97;;;2.72;;
18176;SDS011;9213;50.858;3.964;2022-08-21T08:20:10;6.88;;;2.67;;
18176;SDS011;9213;50.858;3.964;2022-08-21T08:22:38;11.77;;;2.72;;
18176;SDS011;9213;50.858;3.964;2022-08-21T08:25:07;9.80;;;2.85;;
18176;SDS011;9213;50.858;3.964;2022-08-21T08:27:35;7.60;;;2.20;;
18176;SDS011;9213;50.858;3.964;2022-08-21T08:30:04;5.63;;;1.85;;
18176;SDS011;9213;50.858;3.964;2022-08-21T08:32:32;8.93;;;2.10;;
18176;SDS011;9213;50.858;3.964;2022-08-21T08:34:59;11.68;;;2.47;;
18176;SDS011;9213;50.858;3.964;2022-08-21T08:37:26;8.68;;;2.58;;
18176;SDS011;9213;50.858;3.964;2022-08-21T08:39:53;5.00;;;2.20;;
18176;SDS011;9213;50.858;3.964;2022-08-21T08:42:22;8.93;;;2.05;;
18176;SDS011;9213;50.858;3.964;2022-08-21T08:44:56;7.10;;;2.15;;
18176;SDS011;9213;50.858;3.964;2022-08-21T08:47:27;7.57;;;1.90;;
18176;SDS011;9213;50.858;3.964;2022-08-21T08:49:58;4.53;;;2.05;;
18176;SDS011;9213;50.858;3.964;2022-08-21T08:52:29;7.10;;;2.10;;
18176;SDS011;9213;50.858;3.964;2022-08-21T08:54:59;7.57;;;2.00;;
18176;SDS011;9213;50.858;3.964;2022-08-21T08:57:29;6.55;;;2.00;;
18176;SDS011;9213;50.858;3.964;2022-08-21T08:59:58;5.97;;;2.50;;
18176;SDS011;9213;50.858;3.964;2022-08-21T09:02:28;7.22;;;2.35;;
18176;SDS011;9213;50.858;3.964;2022-08-21T09:04:55;5.55;;;2.00;;
18176;SDS011;9213;50.858;3.964;2022-08-21T09:07:25;6.53;;;2.30;;
18176;SDS011;9213;50.858;3.964;2022-08-21T09:10:04;8.70;;;2.10;;
18176;SDS011;9213;50.858;3.964;2022-08-21T09:12:42;7.32;;;1.90;;
18176;SDS011;9213;50.858;3.964;2022-08-21T09:15:20;7.10;;;2.25;;
18176;SDS011;9213;50.858;3.964;2022-08-21T09:17:59;7.28;;;2.10;;
18176;SDS011;9213;50.858;3.964;2022-08-21T09:20:44;8.13;;;2.53;;
18176;SDS011;9213;50.858;3.964;2022-08-21T09:23:23;7.88;;;1.90;;
18176;SDS011;9213;50.858;3.964;2022-08-21T09:26:00;8.20;;;2.15;;
18176;SDS011;9213;50.858;3.964;2022-08-21T09:28:33;8.00;;;2.40;;
18176;SDS011;9213;50.858;3.964;2022-08-21T09:31:01;8.05;;;2.13;;
18176;SDS011;9213;50.858;3.964;2022-08-21T09:33:33;7.78;;;2.15;;
18176;SDS011;9213;50.858;3.964;2022-08-21T09:36:00;5.50;;;2.00;;
18176;SDS011;9213;50.858;3.964;2022-08-21T09:38:29;6.53;;;2.05;;
18176;SDS011;9213;50.858;3.964;2022-08-21T09:40:59;7.63;;;2.25;;
18176;SDS011;9213;50.858;3.964;2022-08-21T09:43:28;8.90;;;2.20;;
18176;SDS011;9213;50.858;3.964;2022-08-21T09:46:04;7.85;;;2.10;;
18176;SDS011;9213;50.858;3.964;2022-08-21T09:48:40;5.57;;;2.50;;
18176;SDS011;9213;50.858;3.964;2022-08-21T09:51:10;8.73;;;2.08;;
18176;SDS011;9213;50.858;3.964;2022-08-21T09:53:42;8.40;;;2.40;;
18176;SDS011;9213;50.858;3.964;2022-08-21T09:56:19;6.78;;;1.80;;
18176;SDS011;9213;50.858;3.964;2022-08-21T09:59:12;6.65;;;2.10;;
18176;SDS011;9213;50.858;3.964;2022-08-21T10:01:42;5.15;;;1.85;;
18176;SDS011;9213;50.858;3.964;2022-08-21T10:04:12;8.15;;;2.00;;
18176;SDS011;9213;50.858;3.964;2022-08-21T10:06:40;7.82;;;2.53;;
18176;SDS011;9213;50.858;3.964;2022-08-21T10:09:08;5.82;;;2.17;;
18176;SDS011;9213;50.858;3.964;2022-08-21T10:11:36;7.10;;;1.88;;
18176;SDS011;9213;50.858;3.964;2022-08-21T10:14:08;6.05;;;1.75;;
18176;SDS011;9213;50.858;3.964;2022-08-21T10:16:43;8.30;;;2.20;;
18176;SDS011;9213;50.858;3.964;2022-08-21T10:19:24;7.82;;;1.85;;
18176;SDS011;9213;50.858;3.964;2022-08-21T10:22:00;8.98;;;2.13;;
18176;SDS011;9213;50.858;3.964;2022-08-21T10:24:37;7.05;;;2.10;;
18176;SDS011;9213;50.858;3.964;2022-08-21T10:27:14;7.10;;;2.10;;
18176;SDS011;9213;50.858;3.964;2022-08-21T10:29:50;8.40;;;2.10;;
18176;SDS011;9213;50.858;3.964;2022-08-21T10:32:24;7.88;;;2.30;;
18176;SDS011;9213;50.858;3.964;2022-08-21T10:35:08;7.20;;;2.20;;
18176;SDS011;9213;50.858;3.964;2022-08-21T10:37:46;6.82;;;2.08;;
18176;SDS011;9213;50.858;3.964;2022-08-21T10:40:24;7.32;;;2.47;;
18176;SDS011;9213;50.858;3.964;2022-08-21T10:42:59;9.00;;;2.25;;
18176;SDS011;9213;50.858;3.964;2022-08-21T10:45:42;9.55;;;2.50;;
18176;SDS011;9213;50.858;3.964;2022-08-21T10:48:20;7.72;;;2.35;;
18176;SDS011;9213;50.858;3.964;2022-08-21T10:50:57;6.55;;;1.92;;
18176;SDS011;9213;50.858;3.964;2022-08-21T10:53:41;7.70;;;2.10;;
18176;SDS011;9213;50.858;3.964;2022-08-21T10:56:17;5.85;;;2.28;;
18176;SDS011;9213;50.858;3.964;2022-08-21T10:58:56;8.15;;;1.98;;
18176;SDS011;9213;50.858;3.964;2022-08-21T11:01:31;6.28;;;1.85;;
18176;SDS011;9213;50.858;3.964;2022-08-21T11:04:09;7.97;;;2.20;;
18176;SDS011;9213;50.858;3.964;2022-08-21T11:06:45;5.00;;;2.03;;
18176;SDS011;9213;50.858;3.964;2022-08-21T11:09:18;7.20;;;2.03;;
18176;SDS011;9213;50.858;3.964;2022-08-21T11:11:49;10.32;;;2.63;;
18176;SDS011;9213;50.858;3.964;2022-08-21T11:14:23;6.57;;;1.95;;
18176;SDS011;9213;50.858;3.964;2022-08-21T11:16:57;7.35;;;2.05;;
18176;SDS011;9213;50.858;3.964;2022-08-21T11:19:28;7.80;;;2.40;;
18176;SDS011;9213;50.858;3.964;2022-08-21T11:22:02;9.40;;;2.60;;
18176;SDS011;9213;50.858;3.964;2022-08-21T11:24:35;6.75;;;2.08;;
18176;SDS011;9213;50.858;3.964;2022-08-21T11:27:12;9.27;;;2.25;;
18176;SDS011;9213;50.858;3.964;2022-08-21T11:29:48;5.03;;;1.95;;
18176;SDS011;9213;50.858;3.964;2022-08-21T11:32:31;7.63;;;2.20;;
18176;SDS011;9213;50.858;3.964;2022-08-21T11:35:10;6.43;;;2.00;;
18176;SDS011;9213;50.858;3.964;2022-08-21T11:37:48;7.07;;;2.03;;
18176;SDS011;9213;50.858;3.964;2022-08-21T11:40:26;9.38;;;2.33;;
18176;SDS011;9213;50.858;3.964;2022-08-21T11:43:05;6.55;;;1.90;;
18176;SDS011;9213;50.858;3.964;2022-08-21T11:45:39;9.00;;;2.20;;
18176;SDS011;9213;50.858;3.964;2022-08-21T11:48:11;9.57;;;2.30;;
18176;SDS011;9213;50.858;3.964;2022-08-21T11:51:00;7.13;;;2.33;;
18176;SDS011;9213;50.858;3.964;2022-08-21T11:53:36;7.93;;;2.17;;
18176;SDS011;9213;50.858;3.964;2022-08-21T11:56:06;10.38;;;2.00;;
18176;SDS011;9213;50.858;3.964;2022-08-21T11:58:38;7.28;;;2.13;;
18176;SDS011;9213;50.858;3.964;2022-08-21T12:01:08;6.38;;;2.17;;
18176;SDS011;9213;50.858;3.964;2022-08-21T12:03:39;7.55;;;1.98;;
18176;SDS011;9213;50.858;3.964;2022-08-21T12:06:09;8.13;;;2.22;;
18176;SDS011;9213;50.858;3.964;2022-08-21T12:08:39;6.65;;;2.47;;
18176;SDS011;9213;50.858;3.964;2022-08-21T12:11:09;6.53;;;2.00;;
18176;SDS011;9213;50.858;3.964;2022-08-21T12:13:52;7.90;;;2.40;;
18176;SDS011;9213;50.858;3.964;2022-08-21T12:16:28;7.80;;;2.00;;
18176;SDS011;9213;50.858;3.964;2022-08-21T12:19:02;3.58;;;1.52;;
18176;SDS011;9213;50.858;3.964;2022-08-21T12:21:30;5.20;;;2.00;;
18176;SDS011;9213;50.858;3.964;2022-08-21T12:24:03;7.97;;;2.15;;
18176;SDS011;9213;50.858;3.964;2022-08-21T12:26:47;9.65;;;2.17;;
18176;SDS011;9213;50.858;3.964;2022-08-21T12:29:16;8.43;;;2.35;;
18176;SDS011;9213;50.858;3.964;2022-08-21T12:31:53;9.18;;;2.28;;
18176;SDS011;9213;50.858;3.964;2022-08-21T12:34:22;9.30;;;2.10;;
18176;SDS011;9213;50.858;3.964;2022-08-21T12:36:53;8.15;;;2.42;;
18176;SDS011;9213;50.858;3.964;2022-08-21T12:39:25;6.30;;;2.20;;
18176;SDS011;9213;50.858;3.964;2022-08-21T12:41:57;7.75;;;1.88;;
18176;SDS011;9213;50.858;3.964;2022-08-21T12:44:28;8.93;;;2.40;;
18176;SDS011;9213;50.858;3.964;2022-08-21T12:47:02;5.47;;;1.80;;
18176;SDS011;9213;50.858;3.964;2022-08-21T12:49:32;8.15;;;2.50;;
18176;SDS011;9213;50.858;3.964;2022-08-21T12:52:02;10.25;;;2.30;;
18176;SDS011;9213;50.858;3.964;2022-08-21T12:54:39;8.50;;;2.50;;
18176;SDS011;9213;50.858;3.964;2022-08-21T12:57:08;6.65;;;2.15;;
18176;SDS011;9213;50.858;3.964;2022-08-21T12:59:43;6.25;;;2.17;;
18176;SDS011;9213;50.858;3.964;2022-08-21T13:02:13;7.78;;;2.70;;
18176;SDS011;9213;50.858;3.964;2022-08-21T13:04:43;10.15;;;2.38;;
18176;SDS011;9213;50.858;3.964;2022-08-21T13:07:14;8.20;;;2.00;;
18176;SDS011;9213;50.858;3.964;2022-08-21T13:09:48;7.15;;;2.17;;
18176;SDS011;9213;50.858;3.964;2022-08-21T13:12:18;6.80;;;2.28;;
18176;SDS011;9213;50.858;3.964;2022-08-21T13:14:47;6.35;;;2.33;;
18176;SDS011;9213;50.858;3.964;2022-08-21T13:17:16;8.63;;;2.65;;
18176;SDS011;9213;50.858;3.964;2022-08-21T13:19:52;7.10;;;2.42;;
18176;SDS011;9213;50.858;3.964;2022-08-21T13:22:20;4.85;;;1.90;;
18176;SDS011;9213;50.858;3.964;2022-08-21T13:24:49;6.93;;;2.28;;
18176;SDS011;9213;50.858;3.964;2022-08-21T13:27:22;10.32;;;2.38;;
18176;SDS011;9213;50.858;3.964;2022-08-21T13:30:00;8.35;;;2.65;;
18176;SDS011;9213;50.858;3.964;2022-08-21T13:32:30;9.43;;;2.47;;
18176;SDS011;9213;50.858;3.964;2022-08-21T13:35:07;6.03;;;2.20;;
18176;SDS011;9213;50.858;3.964;2022-08-21T13:37:43;9.88;;;2.47;;
18176;SDS011;9213;50.858;3.964;2022-08-21T13:40:14;6.35;;;2.28;;
18176;SDS011;9213;50.858;3.964;2022-08-21T13:42:43;8.07;;;1.85;;
18176;SDS011;9213;50.858;3.964;2022-08-21T13:45:14;8.48;;;2.13;;
18176;SDS011;9213;50.858;3.964;2022-08-21T13:47:43;7.32;;;2.05;;
18176;SDS011;9213;50.858;3.964;2022-08-21T13:50:13;7.03;;;2.30;;
18176;SDS011;9213;50.858;3.964;2022-08-21T13:52:46;10.85;;;2.30;;
18176;SDS011;9213;50.858;3.964;2022-08-21T13:55:17;7.95;;;2.40;;
18176;SDS011;9213;50.858;3.964;2022-08-21T13:57:44;10.02;;;2.30;;
18176;SDS011;9213;50.858;3.964;2022-08-21T14:00:12;6.55;;;2.47;;
18176;SDS011;9213;50.858;3.964;2022-08-21T14:02:43;9.27;;;2.05;;
18176;SDS011;9213;50.858;3.964;2022-08-21T14:05:14;8.75;;;2.10;;
18176;SDS011;9213;50.858;3.964;2022-08-21T14:07:45;7.15;;;2.08;;
18176;SDS011;9213;50.858;3.964;2022-08-21T14:10:14;8.35;;;2.20;;
18176;SDS011;9213;50.858;3.964;2022-08-21T14:12:46;5.38;;;2.10;;
18176;SDS011;9213;50.858;3.964;2022-08-21T14:15:15;11.95;;;2.67;;
18176;SDS011;9213;50.858;3.964;2022-08-21T14:17:44;5.95;;;2.05;;
18176;SDS011;9213;50.858;3.964;2022-08-21T14:20:12;6.22;;;2.38;;
18176;SDS011;9213;50.858;3.964;2022-08-21T14:22:51;6.70;;;2.05;;
18176;SDS011;9213;50.858;3.964;2022-08-21T14:25:26;7.43;;;2.33;;
18176;SDS011;9213;50.858;3.964;2022-08-21T14:27:58;6.95;;;2.03;;
18176;SDS011;9213;50.858;3.964;2022-08-21T14:30:30;10.13;;;2.58;;
18176;SDS011;9213;50.858;3.964;2022-08-21T14:32:59;8.27;;;2.63;;
18176;SDS011;9213;50.858;3.964;2022-08-21T14:35:28;7.20;;;2.25;;
18176;SDS011;9213;50.858;3.964;2022-08-21T14:37:55;4.85;;;2.22;;
18176;SDS011;9213;50.858;3.964;2022-08-21T14:40:23;9.23;;;2.20;;
18176;SDS011;9213;50.858;3.964;2022-08-21T14:42:51;6.40;;;2.45;;
18176;SDS011;9213;50.858;3.964;2022-08-21T14:45:23;6.28;;;2.20;;
18176;SDS011;9213;50.858;3.964;2022-08-21T14:47:53;6.13;;;1.90;;
18176;SDS011;9213;50.858;3.964;2022-08-21T14:50:20;9.07;;;2.45;;
18176;SDS011;9213;50.858;3.964;2022-08-21T14:52:47;12.13;;;2.47;;
18176;SDS011;9213;50.858;3.964;2022-08-21T14:55:15;11.73;;;2.58;;
18176;SDS011;9213;50.858;3.964;2022-08-21T14:57:45;9.10;;;2.42;;
18176;SDS011;9213;50.858;3.964;2022-08-21T15:00:14;8.65;;;2.08;;
18176;SDS011;9213;50.858;3.964;2022-08-21T15:02:44;7.15;;;2.42;;
18176;SDS011;9213;50.858;3.964;2022-08-21T15:05:11;8.05;;;2.05;;
18176;SDS011;9213;50.858;3.964;2022-08-21T15:07:38;7.32;;;2.08;;
18176;SDS011;9213;50.858;3.964;2022-08-21T15:10:06;6.93;;;2.30;;
18176;SDS011;9213;50.858;3.964;2022-08-21T15:12:33;7.45;;;2.35;;
18176;SDS011;9213;50.858;3.964;2022-08-21T15:15:00;7.93;;;2.25;;
18176;SDS011;9213;50.858;3.964;2022-08-21T15:17:27;6.07;;;2.00;;